Time;durP1;ratioP1;P1;durP2;ratioP2;P2;SDS_P1;SDS_P2;PMS_P1;PMS_P2;Temp;Humidity;BMP_temperature;BMP_pressure;BME280_temperature;BME280_humidity;BME280_pressure;Samples;Min_cycle;Max_cycle;Signal;HPM_P1;HPM_P2
2023/02/03 00:04:26;;;;;;;15.30;4.40;;;;;;;;;;110446;1260;22116;-76
2023/02/03 00:07:06;;;;;;;16.90;4.90;;;;;;;;;;110130;1274;22369;-76
2023/02/03 00:09:34;;;;;;;18.20;5.80;;;;;;;;;;110151;1280;22140;-76
2023/02/03 00:12:03;;;;;;;18.40;6.20;;;;;;;;;;110156;1276;22145;-76
2023/02/03 00:14:32;;;;;;;15.70;4.80;;;;;;;;;;110358;1265;22176;-76
2023/02/03 00:17:00;;;;;;;14.00;4.30;;;;;;;;;;110146;1280;22178;-76
2023/02/03 00:19:28;;;;;;;15.30;4.00;;;;;;;;;;110094;1280;22125;-76
2023/02/03 00:21:56;;;;;;;15.10;5.00;;;;;;;;;;110061;1280;22218;-76
2023/02/03 00:24:24;;;;;;;13.40;4.50;;;;;;;;;;110361;1263;22096;-76
2023/02/03 00:26:53;;;;;;;14.50;4.30;;;;;;;;;;110132;1281;22454;-76
2023/02/03 00:29:24;;;;;;;18.90;6.00;;;;;;;;;;110116;1281;22838;-76
2023/02/03 00:31:54;;;;;;;16.30;5.80;;;;;;;;;;110102;1281;22850;-76
2023/02/03 00:34:23;;;;;;;14.90;4.50;;;;;;;;;;110229;1273;22026;-76
2023/02/03 00:36:53;;;;;;;13.90;4.40;;;;;;;;;;110044;1281;22528;-76
2023/02/03 00:39:32;;;;;;;;;;;;;;;;;;;;;
2023/02/03 00:50:15;;;;;;;;;;;;;;;;;;;;;
2023/02/03 00:53:28;;;;;;;13.70;3.20;;;;;;;;;;109667;1269;22888;-76
2023/02/03 00:56:28;;;;;;;;;;;;;;;;;;;;;
2023/02/03 01:03:03;;;;;;;8.30;2.90;;;;;;;;;;109302;1293;22165;-77
2023/02/03 01:05:34;;;;;;;12.50;3.40;;;;;;;;;;109134;1273;22251;-76
2023/02/03 01:08:03;;;;;;;9.40;2.80;;;;;;;;;;109162;1276;22968;-76
2023/02/03 01:10:33;;;;;;;10.30;3.30;;;;;;;;;;109171;1294;23017;-75
2023/02/03 01:13:02;;;;;;;6.90;2.40;;;;;;;;;;109249;1293;22181;-76
2023/02/03 01:15:31;;;;;;;7.00;2.20;;;;;;;;;;109228;1275;22165;-77
2023/02/03 01:18:01;;;;;;;10.70;2.40;;;;;;;;;;109328;1293;22224;-76
2023/02/03 01:20:29;;;;;;;8.70;2.50;;;;;;;;;;109310;1293;22174;-75
2023/02/03 01:23:00;;;;;;;11.20;2.70;;;;;;;;;;109347;1282;22329;-76
2023/02/03 01:35:33;;;;;;;11.50;2.50;;;;;;;;;;103893;1301;545716;-78
2023/02/03 01:38:12;;;;;;;10.10;2.40;;;;;;;;;;106361;1286;22542;-80
2023/02/03 01:41:04;;;;;;;8.10;2.50;;;;;;;;;;106293;1286;25416;-77
2023/02/03 01:44:11;;;;;;;10.90;2.50;;;;;;;;;;106313;1286;22567;-80
2023/02/03 01:46:51;;;;;;;14.30;4.30;;;;;;;;;;106282;1269;24215;-78
2023/02/03 01:49:49;;;;;;;14.60;5.40;;;;;;;;;;102296;1285;5401854;-77
2023/02/03 01:52:20;;;;;;;16.00;5.20;;;;;;;;;;106314;1285;25263;-81
2023/02/03 01:55:15;;;;;;;15.10;5.00;;;;;;;;;;106307;1260;24379;-80
2023/02/03 01:58:04;;;;;;;15.00;5.00;;;;;;;;;;106431;1284;23957;-80
2023/02/03 02:00:52;;;;;;;17.20;6.10;;;;;;;;;;106436;1284;22632;-77
2023/02/03 02:03:42;;;;;;;16.30;6.30;;;;;;;;;;106311;1284;24241;-77
2023/02/03 02:06:46;;;;;;;15.20;5.80;;;;;;;;;;106227;1270;24370;-80
2023/02/03 02:09:20;;;;;;;15.00;5.30;;;;;;;;;;106829;1278;24671;-79
2023/02/03 02:12:30;;;;;;;14.60;5.20;;;;;;;;;;106877;1278;24346;-82
2023/02/03 02:15:23;;;;;;;16.70;4.80;;;;;;;;;;106827;1278;25335;-77
2023/02/03 02:18:40;;;;;;;;;;;;;;;;;;;;;
2023/02/03 02:21:31;;;;;;;14.50;4.10;;;;;;;;;;107129;1275;22530;-83
2023/02/03 02:24:24;;;;;;;11.60;3.80;;;;;;;;;;107113;1269;22544;-80
2023/02/03 02:27:20;;;;;;;12.50;3.40;;;;;;;;;;106613;1273;22776;-79
2023/02/03 02:30:15;;;;;;;10.10;2.80;;;;;;;;;;106553;1281;22543;-81
2023/02/03 02:33:11;;;;;;;12.40;3.00;;;;;;;;;;106603;1281;22544;-81
2023/02/03 02:36:30;;;;;;;;;;;;;;;;;;;;;
2023/02/03 02:39:09;;;;;;;9.10;3.10;;;;;;;;;;106720;1281;25360;-80
2023/02/03 02:42:05;;;;;;;13.50;3.20;;;;;;;;;;106470;1280;22750;-83
2023/02/03 02:44:34;;;;;;;12.20;4.00;;;;;;;;;;106409;1281;24315;-77
2023/02/03 02:48:01;;;;;;;12.60;4.40;;;;;;;;;;106331;1266;22536;-77
2023/02/03 02:50:22;;;;;;;14.70;4.60;;;;;;;;;;106816;1278;26499;-79
2023/02/03 02:52:55;;;;;;;13.10;4.20;;;;;;;;;;106561;1279;24538;-78
2023/02/03 02:55:56;;;;;;;;;;;;;;;;;;;;;
2023/02/03 02:59:05;;;;;;;;;;;;;;;;;;;;;
2023/02/03 03:02:57;;;;;;;13.20;4.90;;;;;;;;;;106869;1278;22541;-81
2023/02/03 03:05:42;;;;;;;15.20;4.90;;;;;;;;;;106307;1281;25281;-79
2023/02/03 03:09:04;;;;;;;10.90;4.10;;;;;;;;;;106571;1261;24199;-81
2023/02/03 03:11:58;;;;;;;;;;;;;;;;;;;;;
2023/02/03 03:15:05;;;;;;;13.10;4.60;;;;;;;;;;106471;1282;22631;-80
2023/02/03 03:17:56;;;;;;;9.10;3.80;;;;;;;;;;106434;1264;22620;-83
2023/02/03 03:20:45;;;;;;;11.30;3.90;;;;;;;;;;106443;1281;25491;-79
2023/02/03 03:23:56;;;;;;;11.30;3.50;;;;;;;;;;106494;1281;22530;-79
2023/02/03 03:26:31;;;;;;;12.20;3.90;;;;;;;;;;106469;1281;22553;-78
2023/02/03 03:29:25;;;;;;;12.90;4.60;;;;;;;;;;106302;1283;24256;-82
2023/02/03 03:32:07;;;;;;;13.90;4.20;;;;;;;;;;106379;1283;22551;-83
2023/02/03 03:34:57;;;;;;;9.80;3.10;;;;;;;;;;106344;1283;22546;-77
2023/02/03 03:37:55;;;;;;;10.30;2.70;;;;;;;;;;106447;1262;24071;-80
2023/02/03 03:40:35;;;;;;;9.20;3.00;;;;;;;;;;106418;1281;22539;-80
2023/02/03 03:43:07;;;;;;;10.70;2.70;;;;;;;;;;107080;1273;24238;-77
2023/02/03 03:46:13;;;;;;;;;;;;;;;;;;;;;
2023/02/03 03:49:09;;;;;;;11.40;3.00;;;;;;;;;;107142;1258;25372;-81
2023/02/03 03:52:52;;;;;;;10.00;2.70;;;;;;;;;;107204;1272;25399;-79
2023/02/03 03:55:49;;;;;;;11.20;3.70;;;;;;;;;;107185;1274;22537;-79
2023/02/03 03:58:21;;;;;;;12.30;3.10;;;;;;;;;;107096;1254;22535;-79
2023/02/03 04:01:09;;;;;;;;;;;;;;;;;;;;;
2023/02/03 04:03:57;;;;;;;;;;;;;;;;;;;;;
2023/02/03 04:06:33;;;;;;;16.20;4.80;;;;;;;;;;107046;1273;25389;-78
2023/02/03 04:09:48;;;;;;;;;;;;;;;;;;;;;
2023/02/03 04:12:55;;;;;;;12.40;3.30;;;;;;;;;;106704;1281;22779;-77
2023/02/03 04:15:34;;;;;;;9.00;2.80;;;;;;;;;;106462;1281;22547;-79
2023/02/03 04:18:51;;;;;;;8.90;2.40;;;;;;;;;;106542;1261;24193;-80
2023/02/03 04:21:43;;;;;;;8.70;2.30;;;;;;;;;;106794;1280;22602;-81
2023/02/03 04:25:01;;;;;;;;;;;;;;;;;;;;;
2023/02/03 04:28:08;;;;;;;7.90;2.20;;;;;;;;;;106741;1280;22549;-81
2023/02/03 04:30:58;;;;;;;8.00;1.50;;;;;;;;;;106711;1261;22637;-81
2023/02/03 04:34:31;;;;;;;7.70;2.60;;;;;;;;;;106752;1279;22557;-77
2023/02/03 04:37:26;;;;;;;;;;;;;;;;;;;;;
2023/02/03 04:40:54;;;;;;;;;;;;;;;;;;;;;
2023/02/03 04:43:44;;;;;;;11.00;3.10;;;;;;;;;;106740;1280;22525;-77
2023/02/03 04:46:34;;;;;;;8.50;2.00;;;;;;;;;;106722;1279;24192;-80
2023/02/03 04:49:50;;;;;;;9.40;2.10;;;;;;;;;;106781;1255;22665;-77
2023/02/03 04:52:46;;;;;;;9.00;2.30;;;;;;;;;;107012;1274;22628;-83
2023/02/03 04:55:36;;;;;;;8.80;2.30;;;;;;;;;;107135;1274;24187;-79
2023/02/03 04:59:09;;;;;;;10.40;2.40;;;;;;;;;;107108;1274;24240;-78
2023/02/03 05:02:36;;;;;;;10.50;3.60;;;;;;;;;;107022;1257;24182;-83
2023/02/03 05:05:29;;;;;;;11.00;3.20;;;;;;;;;;107056;1275;24283;-81
2023/02/03 05:08:31;;;;;;;11.80;4.00;;;;;;;;;;106908;1273;22544;-80
2023/02/03 05:11:49;;;;;;;;;;;;;;;;;;;;;
2023/02/03 05:15:09;;;;;;;9.30;3.80;;;;;;;;;;107159;1251;24402;-77
2023/02/03 05:17:44;;;;;;;11.40;4.10;;;;;;;;;;107100;1274;23876;-77
2023/02/03 05:20:52;;;;;;;9.90;3.60;;;;;;;;;;106808;1257;24034;-76
2023/02/03 05:24:09;;;;;;;;;;;;;;;;;;;;;
2023/02/03 05:30:09;;;;;;;9.70;3.70;;;;;;;;;;107015;1275;25572;-77
2023/02/03 05:33:07;;;;;;;8.70;3.10;;;;;;;;;;107057;1273;25410;-77
2023/02/03 05:36:00;;;;;;;10.80;3.40;;;;;;;;;;107166;1273;25361;-78
2023/02/03 05:39:21;;;;;;;9.10;3.40;;;;;;;;;;107127;1273;22534;-78
2023/02/03 05:46:11;;;;;;;18.10;6.10;;;;;;;;;;106456;1282;22576;-77
2023/02/03 05:48:32;;;;;;;17.80;6.60;;;;;;;;;;106429;1282;25287;-77
2023/02/03 05:51:12;;;;;;;19.20;6.70;;;;;;;;;;106485;1264;24376;-82
2023/02/03 05:57:32;;;;;;;;;;;;;;;;;;;;;
2023/02/03 06:00:02;;;;;;;12.60;4.80;;;;;;;;;;106745;1279;24223;-77
2023/02/03 06:03:03;;;;;;;13.40;5.60;;;;;;;;;;106431;1264;25463;-80
2023/02/03 06:06:04;;;;;;;;;;;;;;;;;;;;;
2023/02/03 06:08:43;;;;;;;15.90;5.80;;;;;;;;;;106395;1283;22540;-81
2023/02/03 06:11:40;;;;;;;13.00;5.40;;;;;;;;;;106338;1264;22552;-86
2023/02/03 06:14:50;;;;;;;15.10;6.00;;;;;;;;;;106440;1282;24211;-77
2023/02/03 06:17:40;;;;;;;14.60;5.50;;;;;;;;;;106463;1273;22913;-81
2023/02/03 06:20:13;;;;;;;13.10;5.00;;;;;;;;;;106565;1281;23909;-78
2023/02/03 06:23:02;;;;;;;14.20;5.00;;;;;;;;;;106788;1265;24215;-79
2023/02/03 06:25:33;;;;;;;12.50;4.80;;;;;;;;;;106907;1276;25387;-80
2023/02/03 06:28:51;;;;;;;;;;;;;;;;;;;;;
2023/02/03 06:32:29;;;;;;;;;;;;;;;;;;;;;
2023/02/03 06:43:14;;;;;;;17.00;6.10;;;;;;;;;;106408;1283;24367;-79
2023/02/03 07:13:46;;;;;;;24.00;7.70;;;;;;;;;;105978;1291;22503;-82
2023/02/03 07:16:48;;;;;;;;;;;;;;;;;;;;;
2023/02/03 07:39:34;;;;;;;;;;;;;;;;;;;;;
2023/02/03 08:02:16;;;;;;;;;;;;;;;;;;;;;
2023/02/03 08:05:24;;;;;;;;;;;;;;;;;;;;;
2023/02/03 08:16:40;;;;;;;24.40;7.00;;;;;;;;;;103844;1295;25582;-81
2023/02/03 08:19:43;;;;;;;16.40;6.40;;;;;;;;;;103944;1314;22571;-86
2023/02/03 08:26:53;;;;;;;12.90;5.10;;;;;;;;;;103543;1312;24397;-81
2023/02/03 08:29:50;;;;;;;;;;;;;;;;;;;;;
2023/02/03 08:32:46;;;;;;;13.00;5.90;;;;;;;;;;106719;1320;22535;-79
2023/02/03 08:35:15;;;;;;;14.50;6.10;;;;;;;;;;106792;1300;22419;-79
2023/02/03 08:37:52;;;;;;;;;;;;;;;;;;;;;
2023/02/03 08:40:19;;;;;;;21.80;7.50;;;;;;;;;;106924;1317;22206;-78
2023/02/03 08:42:51;;;;;;;17.10;7.70;;;;;;;;;;106866;1316;22966;-79
2023/02/03 08:45:29;;;;;;;11.80;5.40;;;;;;;;;;107433;1285;22499;-80
2023/02/03 08:48:09;;;;;;;10.80;5.20;;;;;;;;;;108293;1302;22214;-79
2023/02/03 08:50:53;;;;;;;;;;;;;;;;;;;;;
2023/02/03 08:53:40;;;;;;;8.50;3.80;;;;;;;;;;108369;1302;22194;-79
2023/02/03 08:56:08;;;;;;;11.10;5.00;;;;;;;;;;108253;1285;22981;-77
2023/02/03 08:58:56;;;;;;;10.10;4.90;;;;;;;;;;108408;1302;23033;-79
2023/02/03 09:01:35;;;;;;;9.20;3.70;;;;;;;;;;108334;1296;22510;-80
2023/02/03 09:04:11;;;;;;;8.60;3.30;;;;;;;;;;108909;1296;23043;-79
2023/02/03 09:06:42;;;;;;;7.20;2.80;;;;;;;;;;109433;1273;23112;-80
2023/02/03 09:09:50;;;;;;;8.90;3.20;;;;;;;;;;109801;1286;22376;-80
2023/02/03 09:12:16;;;;;;;6.60;2.70;;;;;;;;;;109923;1286;22216;-77
2023/02/03 09:14:43;;;;;;;7.90;3.50;;;;;;;;;;109810;1286;22537;-78
2023/02/03 09:17:33;;;;;;;7.50;3.80;;;;;;;;;;109851;1269;22186;-80
2023/02/03 09:20:13;;;;;;;7.00;3.00;;;;;;;;;;109915;1282;22988;-79
2023/02/03 09:22:40;;;;;;;8.20;3.90;;;;;;;;;;109811;1285;22211;-79
2023/02/03 09:25:07;;;;;;;6.70;2.80;;;;;;;;;;109882;1285;23036;-76
2023/02/03 09:27:46;;;;;;;8.70;3.20;;;;;;;;;;110055;1267;22239;-79
2023/02/03 09:30:16;;;;;;;9.20;3.30;;;;;;;;;;109895;1287;22910;-78
2023/02/03 09:32:46;;;;;;;9.50;4.10;;;;;;;;;;109886;1287;23001;-79
2023/02/03 09:35:16;;;;;;;9.00;3.70;;;;;;;;;;109898;1286;22282;-77
2023/02/03 09:37:43;;;;;;;8.80;4.10;;;;;;;;;;110043;1269;22262;-79
2023/02/03 09:40:17;;;;;;;7.20;3.10;;;;;;;;;;109968;1285;22858;-78
2023/02/03 09:43:16;;;;;;;;;;;;;;;;;;;;;
2023/02/03 09:46:48;;;;;;;7.80;2.90;;;;;;;;;;109525;1272;22850;-79
2023/02/03 09:49:38;;;;;;;6.70;3.00;;;;;;;;;;109819;1287;22898;-80
2023/02/03 09:52:22;;;;;;;11.40;4.80;;;;;;;;;;109703;1287;23040;-80
2023/02/03 09:54:59;;;;;;;9.20;3.40;;;;;;;;;;109827;1287;23025;-77
2023/02/03 09:57:40;;;;;;;5.80;2.20;;;;;;;;;;109713;1269;22978;-79
2023/02/03 10:00:21;;;;;;;12.00;3.80;;;;;;;;;;109834;1287;22196;-80
2023/02/03 10:03:11;;;;;;;12.20;4.00;;;;;;;;;;109779;1287;22195;-80
2023/02/03 10:06:06;;;;;;;10.00;3.70;;;;;;;;;;109671;1287;22168;-76
2023/02/03 10:08:51;;;;;;;12.30;4.90;;;;;;;;;;109733;1269;22164;-78
2023/02/03 10:11:45;;;;;;;8.90;2.70;;;;;;;;;;109702;1287;22179;-77
2023/02/03 10:14:22;;;;;;;15.10;4.70;;;;;;;;;;109760;1287;22381;-79
2023/02/03 10:16:57;;;;;;;11.70;3.90;;;;;;;;;;109749;1264;22462;-80
2023/02/03 10:19:28;;;;;;;12.00;4.50;;;;;;;;;;109751;1287;22883;-76
2023/02/03 10:22:00;;;;;;;10.10;3.20;;;;;;;;;;109813;1287;22498;-78
2023/02/03 10:24:37;;;;;;;9.10;2.70;;;;;;;;;;110004;1269;22152;-76
2023/02/03 10:27:18;;;;;;;8.60;2.40;;;;;;;;;;109993;1263;22157;-77
2023/02/03 10:29:50;;;;;;;10.10;2.70;;;;;;;;;;110008;1281;22171;-78
2023/02/03 10:32:16;;;;;;;9.60;2.90;;;;;;;;;;109949;1281;22885;-77
2023/02/03 10:34:48;;;;;;;10.00;2.70;;;;;;;;;;110007;1282;22171;-77
2023/02/03 10:37:17;;;;;;;8.60;2.20;;;;;;;;;;110108;1260;22152;-77
2023/02/03 10:39:46;;;;;;;8.10;2.60;;;;;;;;;;109989;1282;22759;-78
2023/02/03 10:42:13;;;;;;;9.40;2.30;;;;;;;;;;109894;1282;22226;-76
2023/02/03 10:44:42;;;;;;;11.30;4.20;;;;;;;;;;109970;1282;22140;-75
2023/02/03 10:47:25;;;;;;;9.20;3.00;;;;;;;;;;109936;1260;22396;-76
2023/02/03 10:49:57;;;;;;;9.20;3.10;;;;;;;;;;110005;1282;22103;-76
2023/02/03 10:52:30;;;;;;;16.00;5.60;;;;;;;;;;110052;1282;23106;-77
2023/02/03 10:55:27;;;;;;;;;;;;;;;;;;;;;
2023/02/03 10:58:59;;;;;;;12.90;4.50;;;;;;;;;;109492;1274;22911;-76
2023/02/03 11:01:43;;;;;;;8.50;2.30;;;;;;;;;;109187;1293;22219;-76
2023/02/03 11:04:27;;;;;;;10.00;3.50;;;;;;;;;;108985;1293;22635;-76
2023/02/03 11:07:01;;;;;;;9.20;2.30;;;;;;;;;;109164;1293;22168;-76
2023/02/03 11:09:38;;;;;;;7.00;1.90;;;;;;;;;;109250;1276;22177;-76
2023/02/03 11:12:25;;;;;;;7.30;2.70;;;;;;;;;;109197;1293;22136;-77
2023/02/03 11:15:49;;;;;;;7.60;2.70;;;;;;;;;;109389;1293;22197;-76
2023/02/03 11:18:36;;;;;;;10.10;3.60;;;;;;;;;;109786;1267;22150;-77
2023/02/03 11:39:26;;;;;;;7.80;2.80;;;;;;;;;;110760;1261;22605;-76
2023/02/03 11:42:15;;;;;;;6.00;1.90;;;;;;;;;;110535;1276;22406;-77
2023/02/03 11:44:42;;;;;;;5.70;1.20;;;;;;;;;;110556;1276;22154;-77
2023/02/03 11:47:16;;;;;;;5.40;1.40;;;;;;;;;;110536;1276;22180;-76
2023/02/03 11:49:49;;;;;;;6.70;1.60;;;;;;;;;;110663;1254;22193;-76
2023/02/03 11:52:22;;;;;;;6.80;2.00;;;;;;;;;;110664;1276;22988;-75
2023/02/03 11:55:02;;;;;;;4.20;1.10;;;;;;;;;;110590;1275;22127;-76
2023/02/03 11:57:51;;;;;;;4.40;1.20;;;;;;;;;;110625;1275;22341;-78
2023/02/03 12:00:27;;;;;;;3.50;0.80;;;;;;;;;;110893;1254;22484;-75
2023/02/03 12:03:11;;;;;;;2.70;0.70;;;;;;;;;;110560;1276;22862;-76
2023/02/03 12:06:04;;;;;;;3.10;1.10;;;;;;;;;;110437;1276;22135;-76
2023/02/03 12:09:01;;;;;;;4.60;1.40;;;;;;;;;;110271;1276;22887;-77
2023/02/03 12:11:54;;;;;;;3.20;0.80;;;;;;;;;;110099;1263;22208;-76
2023/02/03 12:14:29;;;;;;;2.90;0.80;;;;;;;;;;110049;1278;22206;-76
2023/02/03 12:17:17;;;;;;;3.00;0.90;;;;;;;;;;110053;1281;22213;-77
2023/02/03 12:19:59;;;;;;;3.30;1.00;;;;;;;;;;110043;1259;22238;-76
2023/02/03 12:22:35;;;;;;;13.20;3.40;;;;;;;;;;109994;1283;22854;-76
2023/02/03 12:25:21;;;;;;;;;;;;;;;;;;;;;
2023/02/03 12:32:25;;;;;;;2.90;1.00;;;;;;;;;;109822;1270;22191;-77
2023/02/03 12:34:55;;;;;;;15.00;4.50;;;;;;;;;;109769;1287;22702;-76
2023/02/03 12:37:27;;;;;;;6.60;2.10;;;;;;;;;;109761;1288;22264;-76
2023/02/03 12:39:57;;;;;;;5.40;2.60;;;;;;;;;;109768;1287;22335;-76
2023/02/03 12:42:50;;;;;;;10.00;5.40;;;;;;;;;;109720;1269;22246;-75
2023/02/03 12:45:20;;;;;;;7.10;3.50;;;;;;;;;;109681;1288;22220;-75
2023/02/03 12:47:48;;;;;;;6.20;2.90;;;;;;;;;;109782;1282;23090;-76
2023/02/03 12:50:17;;;;;;;4.90;2.00;;;;;;;;;;110024;1282;22149;-76
2023/02/03 12:52:49;;;;;;;6.70;2.60;;;;;;;;;;110257;1263;22211;-77
2023/02/03 12:55:18;;;;;;;6.70;1.90;;;;;;;;;;110067;1281;22160;-77
2023/02/03 12:57:49;;;;;;;7.70;1.60;;;;;;;;;;110103;1276;22465;-77
2023/02/03 13:00:29;;;;;;;4.90;1.60;;;;;;;;;;110326;1276;22859;-77
2023/02/03 13:02:57;;;;;;;4.40;1.50;;;;;;;;;;110675;1259;22977;-76
2023/02/03 13:05:29;;;;;;;3.70;0.70;;;;;;;;;;110443;1277;23020;-76
2023/02/03 13:08:00;;;;;;;2.70;0.70;;;;;;;;;;110443;1277;22821;-76
2023/02/03 13:10:40;;;;;;;4.00;1.50;;;;;;;;;;110435;1277;22331;-76
2023/02/03 13:13:10;;;;;;;3.00;0.60;;;;;;;;;;110860;1256;22356;-76
2023/02/03 13:15:39;;;;;;;16.00;4.10;;;;;;;;;;110478;1276;22015;-77
2023/02/03 13:18:26;;;;;;;18.50;5.20;;;;;;;;;;110450;1276;22164;-76
2023/02/03 13:25:10;;;;;;;2.90;0.80;;;;;;;;;;110352;1260;22942;-76
2023/02/03 13:27:48;;;;;;;4.80;0.90;;;;;;;;;;110228;1278;22121;-77
2023/02/03 13:34:37;;;;;;;3.70;1.00;;;;;;;;;;110008;1261;22194;-78
2023/02/03 13:38:01;;;;;;;;;;;;;;;;;;;;;
2023/02/03 13:45:04;;;;;;;8.80;1.30;;;;;;;;;;110447;1257;22139;-79
2023/02/03 13:47:32;;;;;;;10.70;1.60;;;;;;;;;;110415;1277;23024;-77
2023/02/03 13:50:01;;;;;;;8.70;1.70;;;;;;;;;;110225;1277;22141;-76
2023/02/03 13:52:34;;;;;;;6.80;1.30;;;;;;;;;;110225;1277;22127;-76
2023/02/03 13:55:23;;;;;;;8.50;1.80;;;;;;;;;;110403;1260;22688;-76
2023/02/03 13:58:03;;;;;;;6.30;1.70;;;;;;;;;;110355;1276;21935;-78
2023/02/03 14:01:03;;;;;;;10.60;2.00;;;;;;;;;;110474;1276;22126;-76
2023/02/03 14:03:35;;;;;;;8.70;2.20;;;;;;;;;;110452;1276;22107;-76
2023/02/03 14:06:03;;;;;;;12.00;3.60;;;;;;;;;;110733;1258;22184;-76
2023/02/03 14:13:02;;;;;;;6.40;1.50;;;;;;;;;;109980;1277;22532;-76
2023/02/03 14:15:30;;;;;;;7.90;1.20;;;;;;;;;;110385;1259;22241;-75
2023/02/03 14:18:06;;;;;;;9.90;2.10;;;;;;;;;;110268;1277;22280;-75
2023/02/03 14:20:35;;;;;;;14.20;2.80;;;;;;;;;;110431;1278;21988;-76
2023/02/03 14:26:56;;;;;;;17.10;4.10;;;;;;;;;;110058;1261;22189;-75
2023/02/03 14:29:28;;;;;;;13.50;3.00;;;;;;;;;;109876;1283;22820;-78
2023/02/03 14:31:56;;;;;;;27.80;7.80;;;;;;;;;;110014;1283;23039;-76
2023/02/03 14:34:28;;;;;;;17.30;4.30;;;;;;;;;;110016;1283;22283;-76
2023/02/03 14:40:37;;;;;;;11.50;2.40;;;;;;;;;;109813;1287;22166;-77
2023/02/03 14:43:16;;;;;;;13.20;2.70;;;;;;;;;;109718;1269;22928;-77
2023/02/03 14:45:54;;;;;;;16.10;2.60;;;;;;;;;;109717;1263;22275;-80
2023/02/03 14:48:47;;;;;;;11.40;1.60;;;;;;;;;;109719;1287;22871;-80
2023/02/03 14:51:46;;;;;;;12.50;1.90;;;;;;;;;;109779;1287;22167;-77
2023/02/03 14:54:35;;;;;;;10.60;2.50;;;;;;;;;;109821;1287;22166;-77
2023/02/03 14:57:23;;;;;;;20.20;6.10;;;;;;;;;;109796;1267;22137;-78
2023/02/03 15:00:04;;;;;;;40.20;14.00;;;;;;;;;;109939;1284;22539;-78
2023/02/03 15:02:33;;;;;;;53.90;17.80;;;;;;;;;;109876;1284;22176;-79
2023/02/03 15:05:13;;;;;;;39.80;13.90;;;;;;;;;;109908;1284;22179;-77
2023/02/03 15:07:48;;;;;;;22.60;4.70;;;;;;;;;;109863;1266;22199;-77
2023/02/03 15:10:31;;;;;;;20.40;5.40;;;;;;;;;;109946;1284;22177;-76
2023/02/03 15:13:02;;;;;;;16.00;3.60;;;;;;;;;;109949;1284;22448;-77
2023/02/03 15:19:39;;;;;;;16.80;3.60;;;;;;;;;;110349;1260;22149;-76
2023/02/03 15:22:37;;;;;;;19.80;3.90;;;;;;;;;;110104;1279;22963;-77
2023/02/03 15:25:19;;;;;;;14.20;3.20;;;;;;;;;;110028;1279;22202;-77
2023/02/03 15:27:50;;;;;;;18.40;3.40;;;;;;;;;;110127;1256;22209;-78
2023/02/03 15:30:26;;;;;;;17.40;2.70;;;;;;;;;;110117;1279;22090;-77
2023/02/03 15:33:09;;;;;;;16.40;2.90;;;;;;;;;;110143;1279;23186;-79
2023/02/03 15:35:50;;;;;;;24.00;4.30;;;;;;;;;;110153;1279;23080;-78
2023/02/03 15:38:26;;;;;;;18.00;4.50;;;;;;;;;;110073;1261;22164;-80
2023/02/03 15:41:14;;;;;;;;;;;;;;;;;;;;;
2023/02/03 15:43:58;;;;;;;12.20;2.60;;;;;;;;;;110193;1279;22001;-77
2023/02/03 15:46:43;;;;;;;14.50;2.90;;;;;;;;;;110223;1279;22122;-77
2023/02/03 15:49:19;;;;;;;11.30;2.30;;;;;;;;;;110332;1257;22150;-76
2023/02/03 15:51:51;;;;;;;7.50;1.60;;;;;;;;;;110162;1278;22101;-77
2023/02/03 15:54:29;;;;;;;8.30;1.60;;;;;;;;;;110315;1278;22189;-76
2023/02/03 16:01:34;;;;;;;11.20;1.90;;;;;;;;;;109913;1266;22940;-77
2023/02/03 16:04:13;;;;;;;15.10;2.60;;;;;;;;;;109870;1285;22369;-77
2023/02/03 16:07:18;;;;;;;;;;;;;;;;;;;;;
2023/02/03 16:10:16;;;;;;;11.90;2.80;;;;;;;;;;109855;1263;22775;-79
2023/02/03 16:13:04;;;;;;;;;;;;;;;;;;;;;
2023/02/03 16:20:54;;;;;;;13.10;3.10;;;;;;;;;;109625;1266;22166;-79
2023/02/03 16:23:48;;;;;;;9.50;2.60;;;;;;;;;;109634;1289;22276;-77
2023/02/03 16:51:19;;;;;;;22.90;3.90;;;;;;;;;;106497;1283;24234;-76
2023/02/03 16:54:12;;;;;;;22.10;3.60;;;;;;;;;;106493;1283;22507;-82
2023/02/03 16:57:00;;;;;;;31.30;6.40;;;;;;;;;;106295;1267;22540;-77
2023/02/03 17:00:02;;;;;;;18.30;2.90;;;;;;;;;;106478;1283;25326;-79
2023/02/03 17:02:39;;;;;;;17.30;3.60;;;;;;;;;;106435;1277;25342;-77
2023/02/03 17:05:32;;;;;;;19.60;3.70;;;;;;;;;;106092;1266;22548;-78
2023/02/03 17:08:02;;;;;;;16.70;2.80;;;;;;;;;;106368;1283;22539;-79
2023/02/03 17:10:49;;;;;;;22.10;4.80;;;;;;;;;;106510;1282;22642;-79
2023/02/03 17:13:19;;;;;;;22.60;5.70;;;;;;;;;;106480;1284;24535;-77
2023/02/03 17:15:51;;;;;;;20.70;4.10;;;;;;;;;;106442;1267;25356;-77
2023/02/03 17:18:27;;;;;;;23.00;3.50;;;;;;;;;;106373;1279;23849;-79
2023/02/03 17:20:54;;;;;;;18.20;3.70;;;;;;;;;;106423;1260;24196;-78
2023/02/03 17:23:22;;;;;;;16.90;3.50;;;;;;;;;;106450;1284;22541;-78
2023/02/03 17:33:31;;;;;;;17.50;3.60;;;;;;;;;;105762;1294;22619;-82
2023/02/03 18:01:49;;;;;;;16.50;3.60;;;;;;;;;;105845;1293;22532;-79
2023/02/03 18:04:37;;;;;;;18.80;3.50;;;;;;;;;;105782;1273;22554;-85
2023/02/03 18:07:17;;;;;;;23.60;4.30;;;;;;;;;;106303;1266;24657;-78
2023/02/03 18:09:57;;;;;;;16.30;3.10;;;;;;;;;;106378;1285;22578;-82
2023/02/03 18:12:57;;;;;;;;;;;;;;;;;;;;;
2023/02/03 18:15:57;;;;;;;;;;;;;;;;;;;;;
2023/02/03 18:18:51;;;;;;;;;;;;;;;;;;;;;
2023/02/03 18:21:37;;;;;;;;;;;;;;;;;;;;;
2023/02/03 18:24:26;;;;;;;11.90;2.60;;;;;;;;;;106326;1280;22499;-83
2023/02/03 18:26:59;;;;;;;15.80;2.80;;;;;;;;;;106552;1263;25372;-80
2023/02/03 18:29:46;;;;;;;17.00;3.20;;;;;;;;;;106363;1279;22545;-78
2023/02/03 18:32:19;;;;;;;13.50;2.20;;;;;;;;;;106163;1279;25420;-82
2023/02/03 18:34:49;;;;;;;12.50;2.80;;;;;;;;;;106703;1270;22533;-79
2023/02/03 18:37:57;;;;;;;13.40;2.70;;;;;;;;;;106608;1259;22667;-81
2023/02/03 18:41:14;;;;;;;;;;;;;;;;;;;;;
2023/02/03 18:44:14;;;;;;;19.30;3.00;;;;;;;;;;106542;1273;22697;-75
2023/02/03 18:47:05;;;;;;;;;;;;;;;;;;;;;
2023/02/03 18:49:33;;;;;;;19.20;3.40;;;;;;;;;;106568;1264;22552;-79
2023/02/03 18:52:38;;;;;;;27.00;4.70;;;;;;;;;;106682;1278;22661;-78
2023/02/03 18:56:24;;;;;;;21.30;4.00;;;;;;;;;;106670;1278;23136;-81
2023/02/03 18:58:48;;;;;;;;;;;;;;;;;;;;;
2023/02/03 19:01:32;;;;;;;19.70;5.00;;;;;;;;;;106533;1264;24197;-79
2023/02/03 19:07:52;;;;;;;24.70;6.20;;;;;;;;;;106290;1284;25366;-80
2023/02/03 19:10:51;;;;;;;20.90;3.30;;;;;;;;;;106483;1266;22552;-77
2023/02/03 19:13:28;;;;;;;27.70;6.10;;;;;;;;;;106439;1282;24229;-79
2023/02/03 19:16:39;;;;;;;12.00;2.20;;;;;;;;;;106373;1284;22547;-81
2023/02/03 19:20:05;;;;;;;;;;;;;;;;;;;;;
2023/02/03 19:23:03;;;;;;;;;;;;;;;;;;;;;
2023/02/03 19:26:17;;;;;;;22.70;3.80;;;;;;;;;;106212;1278;22593;-81
2023/02/03 19:28:45;;;;;;;12.00;2.30;;;;;;;;;;106238;1277;22559;-78
2023/02/03 19:31:43;;;;;;;10.20;2.00;;;;;;;;;;106481;1267;24326;-80
2023/02/03 19:34:29;;;;;;;12.60;2.40;;;;;;;;;;106205;1278;23890;-78
2023/02/03 19:36:57;;;;;;;11.20;2.60;;;;;;;;;;106203;1283;23351;-81
2023/02/03 19:39:50;;;;;;;10.50;2.20;;;;;;;;;;106449;1276;26773;-80
2023/02/03 19:43:04;;;;;;;12.00;1.90;;;;;;;;;;106517;1263;22542;-79
2023/02/03 19:45:41;;;;;;;9.00;2.00;;;;;;;;;;106862;1276;22537;-80
2023/02/03 19:48:14;;;;;;;8.80;1.40;;;;;;;;;;106803;1276;23877;-83
2023/02/03 19:51:40;;;;;;;5.30;1.10;;;;;;;;;;106902;1257;22493;-77
2023/02/03 19:53:55;;;;;;;5.40;0.90;;;;;;;;;;106898;1276;22781;-78
2023/02/03 19:56:28;;;;;;;7.80;1.40;;;;;;;;;;106847;1276;25328;-79
2023/02/03 19:58:58;;;;;;;8.30;1.80;;;;;;;;;;106903;1276;25231;-84
2023/02/03 20:02:07;;;;;;;11.30;2.20;;;;;;;;;;106768;1260;25608;-83
2023/02/03 20:04:48;;;;;;;9.10;2.40;;;;;;;;;;106679;1280;25427;-82
2023/02/03 20:07:47;;;;;;;11.20;2.90;;;;;;;;;;106656;1273;24397;-77
2023/02/03 20:10:15;;;;;;;7.90;1.70;;;;;;;;;;106444;1279;22546;-81
2023/02/03 20:12:58;;;;;;;10.30;2.40;;;;;;;;;;106876;1262;22275;-80
2023/02/03 20:18:53;;;;;;;11.50;2.30;;;;;;;;;;106699;1279;24633;-79
2023/02/03 20:21:45;;;;;;;11.40;2.30;;;;;;;;;;106505;1262;22603;-78
2023/02/03 20:24:53;;;;;;;13.00;3.80;;;;;;;;;;106829;1279;24043;-79
2023/02/03 20:27:52;;;;;;;;;;;;;;;;;;;;;
2023/02/03 20:30:22;;;;;;;15.80;3.20;;;;;;;;;;106893;1278;25614;-81
2023/02/03 20:33:31;;;;;;;15.50;3.40;;;;;;;;;;106966;1262;22524;-80
2023/02/03 20:37:07;;;;;;;10.60;1.90;;;;;;;;;;107098;1274;22547;-78
2023/02/03 20:40:11;;;;;;;11.40;1.90;;;;;;;;;;106502;1282;22606;-83
2023/02/03 20:43:16;;;;;;;15.80;3.10;;;;;;;;;;106605;1281;24232;-77
2023/02/03 20:45:46;;;;;;;11.90;1.80;;;;;;;;;;106461;1281;25423;-79
2023/02/03 20:48:39;;;;;;;10.10;2.10;;;;;;;;;;106429;1281;22116;-79
2023/02/03 20:51:12;;;;;;;9.60;1.80;;;;;;;;;;106737;1281;22693;-80
2023/02/03 20:54:08;;;;;;;8.60;1.90;;;;;;;;;;106826;1262;24212;-80
2023/02/03 21:06:49;;;;;;;10.70;1.80;;;;;;;;;;106314;1286;25243;-81
2023/02/03 21:09:22;;;;;;;11.10;2.30;;;;;;;;;;106307;1263;22540;-78
2023/02/03 21:11:53;;;;;;;4.90;0.90;;;;;;;;;;106437;1286;22552;-79
2023/02/03 21:14:43;;;;;;;9.90;1.90;;;;;;;;;;106102;1281;22550;-83
2023/02/03 21:17:14;;;;;;;10.70;2.10;;;;;;;;;;102566;1284;5082851;-80
2023/02/03 21:19:43;;;;;;;9.30;1.50;;;;;;;;;;106446;1284;25239;-81